createdAt,value
2019-04-16T00:02:28.796Z,30.75
2019-04-16T00:05:18.433Z,32.60
2019-04-16T00:07:56.614Z,31.35
2019-04-16T00:10:49.022Z,34.05
2019-04-16T00:13:24.823Z,31.80
2019-04-16T00:15:54.999Z,31.57
2019-04-16T00:18:24.874Z,30.12
2019-04-16T00:21:29.294Z,29.00
2019-04-16T00:24:19.455Z,42.78
2019-04-16T00:26:51.443Z,35.75
2019-04-16T00:29:21.419Z,30.52
2019-04-16T00:32:00.635Z,32.00
2019-04-16T00:34:30.493Z,30.45
2019-04-16T00:37:00.315Z,31.55
2019-04-16T00:39:30.183Z,34.08
2019-04-16T00:42:00.052Z,35.35
2019-04-16T00:44:29.905Z,32.45
2019-04-16T00:46:59.731Z,36.95
2019-04-16T00:49:29.615Z,32.13
2019-04-16T00:51:59.407Z,30.45
2019-04-16T00:54:29.206Z,30.32
2019-04-16T00:56:59.115Z,36.58
2019-04-16T00:59:29.183Z,30.70
2019-04-16T01:01:59.042Z,29.75
2019-04-16T01:04:29.013Z,34.80
2019-04-16T01:06:59.023Z,28.40
2019-04-16T01:09:28.907Z,39.23
2019-04-16T01:11:58.709Z,33.25
2019-04-16T01:14:29.771Z,28.12
2019-04-16T01:17:04.056Z,34.78
2019-04-16T01:19:31.342Z,35.25
2019-04-16T01:22:01.162Z,35.50
2019-04-16T01:24:30.973Z,35.90
2019-04-16T01:27:00.759Z,31.90
2019-04-16T01:29:33.583Z,39.53
2019-04-16T01:32:22.687Z,31.82
2019-04-16T01:35:27.375Z,33.13
2019-04-16T01:38:21.985Z,36.23
2019-04-16T01:41:02.975Z,29.23
2019-04-16T01:43:33.337Z,30.95
2019-04-16T01:46:03.330Z,32.93
2019-04-16T01:48:33.194Z,34.08
2019-04-16T01:51:02.977Z,36.65
2019-04-16T01:53:32.883Z,36.50
2019-04-16T01:56:02.937Z,34.00
2019-04-16T01:58:33.852Z,36.77
2019-04-16T02:01:04.872Z,33.85
2019-04-16T02:03:34.820Z,32.10
2019-04-16T02:06:04.752Z,36.25
2019-04-16T02:08:34.662Z,38.00
2019-04-16T02:11:04.564Z,37.50
2019-04-16T02:13:34.480Z,39.92
2019-04-16T02:16:04.423Z,39.85
2019-04-16T02:18:34.411Z,36.53
2019-04-16T02:21:04.329Z,35.17
2019-04-16T02:23:34.287Z,36.40
2019-04-16T02:26:04.124Z,39.38
2019-04-16T02:28:34.010Z,30.82
2019-04-16T02:31:03.852Z,33.67
2019-04-16T02:33:33.923Z,34.15
2019-04-16T02:36:03.743Z,33.50
2019-04-16T02:38:33.696Z,40.45
2019-04-16T02:41:03.664Z,35.65
2019-04-16T02:43:39.741Z,38.33
2019-04-16T02:46:05.448Z,36.50
2019-04-16T02:48:35.475Z,37.65
2019-04-16T02:51:14.545Z,43.78
2019-04-16T02:54:04.006Z,34.80
2019-04-16T02:56:53.061Z,33.40
2019-04-16T02:59:26.839Z,36.50
2019-04-16T03:02:22.715Z,33.02
2019-04-16T03:05:03.592Z,36.30
2019-04-16T03:07:33.473Z,35.23
2019-04-16T03:10:06.509Z,36.10
2019-04-16T03:12:36.421Z,39.42
2019-04-16T03:15:06.459Z,35.52
2019-04-16T03:17:42.711Z,34.25
2019-04-16T03:20:14.168Z,33.67
2019-04-16T03:22:44.023Z,39.30
2019-04-16T03:25:14.596Z,33.23
2019-04-16T03:27:44.715Z,33.92
2019-04-16T03:30:14.862Z,41.88
2019-04-16T03:32:50.687Z,39.83
2019-04-16T03:35:25.166Z,35.35
2019-04-16T03:37:52.468Z,38.40
2019-04-16T03:40:25.666Z,35.50
2019-04-16T03:42:58.968Z,38.80
2019-04-16T03:45:25.936Z,38.65
2019-04-16T03:47:55.742Z,36.13
2019-04-16T03:50:25.576Z,38.65
2019-04-16T03:52:55.413Z,38.88
2019-04-16T03:55:26.326Z,37.53
2019-04-16T03:57:56.273Z,35.30
2019-04-16T04:00:26.297Z,42.30
2019-04-16T04:02:56.243Z,42.15
2019-04-16T04:05:38.540Z,37.38
2019-04-16T04:08:08.353Z,39.83
2019-04-16T04:10:40.290Z,37.80
2019-04-16T04:13:17.288Z,36.40
2019-04-16T04:16:05.148Z,36.88
2019-04-16T04:18:50.079Z,50.15
2019-04-16T04:21:22.088Z,41.77
2019-04-16T04:23:57.492Z,46.90
2019-04-16T04:26:27.951Z,42.48
2019-04-16T04:29:08.277Z,41.28
2019-04-16T04:31:40.191Z,38.85
2019-04-16T04:34:16.950Z,42.13
2019-04-16T04:36:52.973Z,36.50
2019-04-16T04:39:25.169Z,40.67
2019-04-16T04:41:56.537Z,42.27
2019-04-16T04:44:42.335Z,42.80
2019-04-16T04:47:12.109Z,39.73
2019-04-16T04:49:41.935Z,41.00
2019-04-16T04:52:14.630Z,39.03
2019-04-16T04:54:43.616Z,41.70
2019-04-16T04:57:13.505Z,47.40
2019-04-16T04:59:43.436Z,42.17
2019-04-16T05:02:14.340Z,39.40
2019-04-16T05:05:12.798Z,46.35
2019-04-16T05:07:42.719Z,43.05
2019-04-16T05:10:12.565Z,48.50
2019-04-16T05:12:42.382Z,45.45
2019-04-16T05:15:12.521Z,39.92
2019-04-16T05:17:42.341Z,46.33
2019-04-16T05:20:35.373Z,45.92
2019-04-16T05:23:06.487Z,47.17
2019-04-16T05:25:37.795Z,44.88
2019-04-16T05:28:11.593Z,40.67
2019-04-16T05:30:39.621Z,52.58
2019-04-16T05:33:09.464Z,41.80
2019-04-16T05:35:41.445Z,42.33
2019-04-16T05:38:27.159Z,40.30
2019-04-16T05:40:54.338Z,42.17
2019-04-16T05:43:30.225Z,44.60
2019-04-16T05:46:14.162Z,49.55
2019-04-16T05:48:44.198Z,45.67
2019-04-16T05:51:14.103Z,42.10
2019-04-16T05:53:49.188Z,42.62
2019-04-16T05:56:38.591Z,50.23
2019-04-16T05:59:08.539Z,50.25
2019-04-16T06:01:53.070Z,50.00
2019-04-16T06:04:24.963Z,39.53
2019-04-16T06:06:55.214Z,40.85
2019-04-16T06:09:25.108Z,48.75
2019-04-16T06:11:55.051Z,46.77
2019-04-16T06:14:32.005Z,44.90
2019-04-16T06:17:31.739Z,50.10
2019-04-16T06:20:20.526Z,43.23
2019-04-16T06:23:10.336Z,47.00
2019-04-16T06:25:49.324Z,48.28
2019-04-16T06:28:35.312Z,45.45
2019-04-16T06:31:27.988Z,48.65
2019-04-16T06:34:16.406Z,44.65
2019-04-16T06:37:00.502Z,44.15
2019-04-16T06:39:47.019Z,44.95
2019-04-16T06:42:27.899Z,42.70
2019-04-16T06:45:01.594Z,46.60
2019-04-16T06:47:49.350Z,45.60
2019-04-16T06:50:39.625Z,45.00
2019-04-16T06:53:14.359Z,45.78
2019-04-16T06:56:16.513Z,46.92
2019-04-16T06:59:00.840Z,44.30
2019-04-16T07:01:49.193Z,42.48
2019-04-16T07:04:30.907Z,44.48
2019-04-16T07:07:37.879Z,38.80
2019-04-16T07:10:01.850Z,40.80
2019-04-16T07:12:37.901Z,41.80
2019-04-16T07:15:07.185Z,49.90
2019-04-16T07:17:40.330Z,42.75
2019-04-16T07:20:13.147Z,44.35
2019-04-16T07:22:58.636Z,37.80
2019-04-16T07:25:29.720Z,40.58
2019-04-16T07:28:07.967Z,38.75
2019-04-16T07:30:45.296Z,46.95
2019-04-16T07:33:25.025Z,43.30
2019-04-16T07:36:27.234Z,41.68
2019-04-16T07:39:28.694Z,45.05
2019-04-16T07:43:47.120Z,42.48
2019-04-16T07:45:01.119Z,36.73
2019-04-16T07:47:51.629Z,43.85
2019-04-16T07:50:40.494Z,39.60
2019-04-16T07:53:33.026Z,38.33
2019-04-16T07:56:08.668Z,41.98
2019-04-16T07:58:38.700Z,43.52
2019-04-16T08:01:12.733Z,42.93
2019-04-16T08:03:40.643Z,46.83
2019-04-16T08:06:13.569Z,50.50
2019-04-16T08:08:42.297Z,40.67
2019-04-16T08:11:12.402Z,44.10
2019-04-16T08:13:42.949Z,42.20
2019-04-16T08:16:13.135Z,58.90
2019-04-16T08:18:50.084Z,46.37
2019-04-16T08:21:22.467Z,43.58
2019-04-16T08:24:09.270Z,42.27
2019-04-16T08:26:41.608Z,45.98
2019-04-16T08:29:11.117Z,44.50
2019-04-16T08:31:44.861Z,45.33
2019-04-16T08:34:14.987Z,42.45
2019-04-16T08:36:44.927Z,45.15
2019-04-16T08:39:15.716Z,44.55
2019-04-16T08:41:45.586Z,43.13
2019-04-16T08:44:17.412Z,44.20
2019-04-16T08:46:47.421Z,40.40
2019-04-16T08:49:22.049Z,44.65
2019-04-16T08:51:49.355Z,47.00
2019-04-16T08:54:19.193Z,43.75
2019-04-16T08:56:49.075Z,50.10
2019-04-16T08:59:19.368Z,41.23
2019-04-16T09:01:51.421Z,47.93
2019-04-16T09:04:21.207Z,39.18
2019-04-16T09:06:51.163Z,48.90
2019-04-16T09:09:38.740Z,43.10
2019-04-16T09:12:09.642Z,36.83
2019-04-16T09:14:43.715Z,45.12
2019-04-16T09:17:19.960Z,41.70
2019-04-16T09:20:07.813Z,40.00
2019-04-16T09:22:48.147Z,43.25
2019-04-16T09:25:27.720Z,43.08
2019-04-16T09:28:32.471Z,49.25
2019-04-16T09:31:23.152Z,40.63
2019-04-16T09:33:59.288Z,50.60
2019-04-16T09:36:48.865Z,43.48
2019-04-16T09:39:38.514Z,44.40
2019-04-16T09:42:08.901Z,50.65
2019-04-16T09:44:38.733Z,43.95
2019-04-16T09:47:08.788Z,49.33
2019-04-16T09:49:39.121Z,46.88
2019-04-16T09:52:09.743Z,42.85
2019-04-16T09:54:41.542Z,49.90
2019-04-16T09:57:11.477Z,43.87
2019-04-16T09:59:48.995Z,51.63
2019-04-16T10:02:22.619Z,41.42
2019-04-16T10:04:52.502Z,44.20
2019-04-16T10:07:22.778Z,39.13
2019-04-16T10:09:54.504Z,47.78
2019-04-16T10:12:25.439Z,48.05
2019-04-16T10:14:56.655Z,48.85
2019-04-16T10:17:28.205Z,41.83
2019-04-16T10:19:58.149Z,40.33
2019-04-16T10:22:28.094Z,41.23
2019-04-16T10:25:14.610Z,39.00
2019-04-16T10:27:57.340Z,40.43
2019-04-16T10:30:42.535Z,39.98
2019-04-16T10:33:12.682Z,47.35
2019-04-16T10:35:42.675Z,42.73
2019-04-16T10:38:30.561Z,47.23
2019-04-16T10:41:10.558Z,45.30
2019-04-16T10:43:58.540Z,41.57
2019-04-16T10:46:47.858Z,38.90
2019-04-16T10:49:26.846Z,44.80
2019-04-16T10:52:15.081Z,40.67
2019-04-16T10:55:18.730Z,39.23
2019-04-16T10:58:07.037Z,45.57
2019-04-16T11:00:46.956Z,43.60
2019-04-16T11:03:24.791Z,36.07
2019-04-16T11:06:00.856Z,43.00
2019-04-16T11:08:30.753Z,39.43
2019-04-16T11:11:00.783Z,34.17
2019-04-16T11:13:34.485Z,43.73
2019-04-16T11:16:10.232Z,28.53
2019-04-16T11:18:40.353Z,36.83
2019-04-16T11:21:10.914Z,40.70
2019-04-16T11:23:41.083Z,38.53
2019-04-16T11:26:11.005Z,39.93
2019-04-16T11:28:40.987Z,34.93
2019-04-16T11:31:13.665Z,36.07
2019-04-16T11:33:43.663Z,21.83
2019-04-16T11:36:19.742Z,33.17
2019-04-16T11:38:45.503Z,36.30
2019-04-16T11:41:15.438Z,41.07
2019-04-16T11:43:45.373Z,35.90
2019-04-16T11:46:15.411Z,43.00
2019-04-16T11:48:45.342Z,46.07
2019-04-16T11:51:15.288Z,39.20
2019-04-16T11:53:45.289Z,42.23
2019-04-16T11:56:15.305Z,36.50
2019-04-16T11:58:46.077Z,38.67
2019-04-16T12:01:45.361Z,33.80
2019-04-16T12:04:50.151Z,37.60
2019-04-16T12:07:23.945Z,32.40
2019-04-16T12:10:12.241Z,34.73
2019-04-16T12:12:55.923Z,41.60
2019-04-16T12:15:34.971Z,35.67
2019-04-16T12:18:24.454Z,44.33
2019-04-16T12:21:06.378Z,39.13
2019-04-16T12:23:54.634Z,38.17
2019-04-16T12:26:44.039Z,38.73
2019-04-16T12:29:27.399Z,45.37
2019-04-16T12:32:16.038Z,38.10
2019-04-16T12:34:59.550Z,31.60
2019-04-16T12:37:47.926Z,36.00
2019-04-16T12:40:37.514Z,44.40
2019-04-16T12:43:14.760Z,37.10
2019-04-16T12:45:58.977Z,39.43
2019-04-16T12:48:52.460Z,35.33
2019-04-16T12:51:42.132Z,38.47
2019-04-16T12:54:27.509Z,40.10
2019-04-16T12:57:29.347Z,38.80
2019-04-16T13:00:27.307Z,32.30
2019-04-16T13:03:18.277Z,32.33
2019-04-16T13:06:26.230Z,39.60
2019-04-16T13:09:13.624Z,35.80
2019-04-16T13:11:49.958Z,36.77
2019-04-16T13:14:42.517Z,36.10
2019-04-16T13:17:43.121Z,47.40
2019-04-16T13:20:33.938Z,34.40
2019-04-16T13:23:11.971Z,41.43
2019-04-16T13:25:53.034Z,37.73
2019-04-16T13:28:24.476Z,37.20
2019-04-16T13:30:54.336Z,39.00
2019-04-16T13:33:24.393Z,29.97
2019-04-16T13:35:54.453Z,33.53
2019-04-16T13:38:25.663Z,35.63
2019-04-16T13:40:55.742Z,36.10
2019-04-16T13:43:33.782Z,32.33
2019-04-16T13:46:02.947Z,36.77
2019-04-16T13:48:42.489Z,34.07
2019-04-16T13:51:18.643Z,32.73
2019-04-16T13:54:07.003Z,33.13
2019-04-16T13:56:50.086Z,37.63
2019-04-16T13:59:37.366Z,31.70
2019-04-16T14:02:47.726Z,37.07
2019-04-16T14:05:17.424Z,34.37
2019-04-16T14:07:47.335Z,34.97
2019-04-16T14:10:17.315Z,32.83
2019-04-16T14:12:47.236Z,34.97
2019-04-16T14:15:31.138Z,41.77
2019-04-16T14:17:52.882Z,34.23
2019-04-16T14:20:21.813Z,35.67
2019-04-16T14:22:53.517Z,35.70
2019-04-16T14:25:23.477Z,36.73
2019-04-16T14:27:55.392Z,36.73
2019-04-16T14:30:29.271Z,38.57
2019-04-16T14:32:59.373Z,35.53
2019-04-16T14:35:33.979Z,34.70
2019-04-16T14:38:04.207Z,34.20
2019-04-16T14:40:34.211Z,37.40
2019-04-16T14:43:04.237Z,37.10
2019-04-16T14:45:58.326Z,34.17
2019-04-16T14:48:24.285Z,39.90
2019-04-16T14:50:54.377Z,39.40
2019-04-16T14:53:51.348Z,37.50
2019-04-16T14:56:35.572Z,35.27
2019-04-16T14:59:12.996Z,35.93
2019-04-16T15:02:00.794Z,37.37
2019-04-16T15:04:48.850Z,42.10
2019-04-16T15:07:37.029Z,38.70
2019-04-16T15:10:18.934Z,37.40
2019-04-16T15:13:00.156Z,37.93
2019-04-16T15:15:39.742Z,35.03
2019-04-16T15:18:21.567Z,33.60
2019-04-16T15:21:10.255Z,35.50
2019-04-16T15:23:56.249Z,32.90
2019-04-16T15:26:44.112Z,36.13
2019-04-16T15:29:23.524Z,31.10
2019-04-16T15:32:05.454Z,36.53
2019-04-16T15:34:43.038Z,34.53
2019-04-16T15:37:25.879Z,36.10
2019-04-16T15:40:00.789Z,36.20
2019-04-16T15:42:49.052Z,26.60
2019-04-16T15:45:34.286Z,29.97
2019-04-16T15:48:34.113Z,27.57
2019-04-16T15:51:16.125Z,27.30
2019-04-16T15:54:05.898Z,31.33
2019-04-16T15:56:51.609Z,33.63
2019-04-16T15:59:43.925Z,28.30
2019-04-16T16:02:32.160Z,36.30
2019-04-16T16:05:18.102Z,28.90
2019-04-16T16:08:04.267Z,29.57
2019-04-16T16:10:59.106Z,30.07
2019-04-16T16:13:29.229Z,28.20
2019-04-16T16:15:59.082Z,27.03
2019-04-16T16:18:30.937Z,27.40
2019-04-16T16:21:03.119Z,25.50
2019-04-16T16:23:34.193Z,25.27
2019-04-16T16:26:04.531Z,25.50
2019-04-16T16:28:34.611Z,29.03
2019-04-16T16:31:04.665Z,26.67
2019-04-16T16:33:36.442Z,26.00
2019-04-16T16:36:06.632Z,26.13
2019-04-16T16:38:36.510Z,26.80
2019-04-16T16:41:06.500Z,24.00
2019-04-16T16:43:37.086Z,27.57
2019-04-16T16:46:30.232Z,26.73
2019-04-16T16:49:01.012Z,24.43
2019-04-16T16:51:31.178Z,24.40
2019-04-16T16:54:17.919Z,22.03
2019-04-16T16:57:01.575Z,23.90
2019-04-16T16:59:53.529Z,30.67
2019-04-16T17:02:31.433Z,27.60
2019-04-16T17:05:01.528Z,24.05
2019-04-16T17:07:31.432Z,27.17
2019-04-16T17:10:01.449Z,26.37
2019-04-16T17:12:31.334Z,25.07
2019-04-16T17:15:01.281Z,25.80
2019-04-16T17:17:31.162Z,23.33
2019-04-16T17:20:01.092Z,23.23
2019-04-16T17:22:30.913Z,26.40
2019-04-16T17:25:00.795Z,24.98
2019-04-16T17:27:30.785Z,26.27
2019-04-16T17:30:00.633Z,19.60
2019-04-16T17:32:30.525Z,21.03
2019-04-16T17:35:00.504Z,24.50
2019-04-16T17:37:30.458Z,22.60
2019-04-16T17:40:21.601Z,23.20
2019-04-16T17:42:55.231Z,18.42
2019-04-16T17:45:51.068Z,29.30
2019-04-16T17:48:30.775Z,20.55
2019-04-16T17:51:32.560Z,18.45
2019-04-16T17:54:16.038Z,18.98
2019-04-16T17:56:55.609Z,19.75
2019-04-16T17:59:36.880Z,20.52
2019-04-16T18:02:37.282Z,26.02
2019-04-16T18:05:35.511Z,17.00
2019-04-16T18:08:34.425Z,17.77
2019-04-16T18:11:10.915Z,17.37
2019-04-16T18:13:48.986Z,15.45
2019-04-16T18:16:35.026Z,18.95
2019-04-16T18:19:37.156Z,22.30
2019-04-16T18:22:22.401Z,18.17
2019-04-16T18:25:10.706Z,22.80
2019-04-16T18:27:46.239Z,17.37
2019-04-16T18:30:41.039Z,24.67
2019-04-16T18:33:32.806Z,19.90
2019-04-16T18:36:22.440Z,19.00
2019-04-16T18:39:21.285Z,18.82
2019-04-16T18:42:04.652Z,16.35
2019-04-16T18:45:00.421Z,17.60
2019-04-16T18:47:37.987Z,21.80
2019-04-16T18:50:11.360Z,18.25
2019-04-16T18:52:42.287Z,15.65
2019-04-16T18:55:12.134Z,17.77
2019-04-16T18:57:42.533Z,18.35
2019-04-16T19:00:31.912Z,17.07
2019-04-16T19:03:05.937Z,19.30
2019-04-16T19:05:36.172Z,15.32
2019-04-16T19:08:06.831Z,19.67
2019-04-16T19:10:37.021Z,19.80
2019-04-16T19:13:11.147Z,15.40
2019-04-16T19:15:40.458Z,25.27
2019-04-16T19:18:19.484Z,16.73
2019-04-16T19:20:42.356Z,18.42
2019-04-16T19:23:12.422Z,17.30
2019-04-16T19:25:42.421Z,17.20
2019-04-16T19:28:12.466Z,19.52
2019-04-16T19:30:44.002Z,19.92
2019-04-16T19:33:13.963Z,20.00
2019-04-16T19:35:44.010Z,21.02
2019-04-16T19:38:14.264Z,19.52
2019-04-16T19:40:44.396Z,26.55
2019-04-16T19:43:14.375Z,19.90
2019-04-16T19:45:44.608Z,19.70
2019-04-16T19:48:17.755Z,27.32
2019-04-16T19:50:46.597Z,20.90
2019-04-16T19:53:16.656Z,23.77
2019-04-16T19:55:46.896Z,33.05
2019-04-16T19:58:17.324Z,26.07
2019-04-16T20:00:47.427Z,22.93
2019-04-16T20:03:17.603Z,21.40
2019-04-16T20:05:47.516Z,23.67
2019-04-16T20:08:17.782Z,55.05
2019-04-16T20:10:50.892Z,23.40
2019-04-16T20:13:20.857Z,24.25
2019-04-16T20:15:54.822Z,24.90
2019-04-16T20:18:31.018Z,22.42
2019-04-16T20:21:02.192Z,26.07
2019-04-16T20:23:33.380Z,45.92
2019-04-16T20:26:03.439Z,21.33
2019-04-16T20:28:33.889Z,24.15
2019-04-16T20:31:04.773Z,50.03
2019-04-16T20:33:34.831Z,27.55
2019-04-16T20:36:04.971Z,22.87
2019-04-16T20:38:34.967Z,23.35
2019-04-16T20:41:05.016Z,20.90
2019-04-16T20:43:34.949Z,24.82
2019-04-16T20:46:05.710Z,22.90
2019-04-16T20:48:36.207Z,23.47
2019-04-16T20:51:06.464Z,24.82
2019-04-16T20:53:38.113Z,19.62
2019-04-16T20:56:10.754Z,19.37
2019-04-16T20:58:40.381Z,20.82
2019-04-16T21:01:10.504Z,22.35
2019-04-16T21:03:40.497Z,19.98
2019-04-16T21:06:10.631Z,22.22
2019-04-16T21:08:40.786Z,20.75
2019-04-16T21:11:10.752Z,24.98
2019-04-16T21:13:40.747Z,23.57
2019-04-16T21:16:10.697Z,22.17
2019-04-16T21:18:40.652Z,26.80
2019-04-16T21:21:10.550Z,22.37
2019-04-16T21:23:41.629Z,23.18
2019-04-16T21:26:11.515Z,20.32
2019-04-16T21:28:58.513Z,22.48
2019-04-16T21:31:38.259Z,21.12
2019-04-16T21:34:24.984Z,22.22
2019-04-16T21:37:16.960Z,25.02
2019-04-16T21:39:58.109Z,20.45
2019-04-16T21:42:27.997Z,20.88
2019-04-16T21:44:58.090Z,21.15
2019-04-16T21:47:28.013Z,20.35
2019-04-16T21:49:58.029Z,21.10
2019-04-16T21:52:27.932Z,20.02
2019-04-16T21:55:03.019Z,17.15
2019-04-16T21:57:30.404Z,19.42
2019-04-16T22:00:00.800Z,20.92
2019-04-16T22:02:37.794Z,16.67
2019-04-16T22:05:08.304Z,21.37
2019-04-16T22:07:38.147Z,19.07
2019-04-16T22:10:08.325Z,20.00
2019-04-16T22:12:38.375Z,23.18
2019-04-16T22:15:08.601Z,19.55
2019-04-16T22:17:38.601Z,22.82
2019-04-16T22:20:09.094Z,19.40
2019-04-16T22:22:38.886Z,24.52
2019-04-16T22:25:08.762Z,21.52
2019-04-16T22:27:39.812Z,20.52
2019-04-16T22:30:10.377Z,23.20
2019-04-16T22:32:40.301Z,18.77
2019-04-16T22:35:10.184Z,20.92
2019-04-16T22:37:40.035Z,20.00
2019-04-16T22:40:28.357Z,18.90
2019-04-16T22:43:15.395Z,23.10
2019-04-16T22:45:53.140Z,21.12
2019-04-16T22:48:23.093Z,23.57
2019-04-16T22:50:52.996Z,20.10
2019-04-16T22:53:22.903Z,20.48
2019-04-16T22:55:56.400Z,22.13
2019-04-16T22:58:25.305Z,17.92
2019-04-16T23:01:03.000Z,23.02
2019-04-16T23:03:32.765Z,20.15
2019-04-16T23:06:05.934Z,18.27
2019-04-16T23:08:34.601Z,23.87
2019-04-16T23:11:04.816Z,22.25
2019-04-16T23:13:34.660Z,19.37
2019-04-16T23:16:04.575Z,19.67
2019-04-16T23:18:34.451Z,20.45
2019-04-16T23:21:09.534Z,22.13
2019-04-16T23:23:36.155Z,20.65
2019-04-16T23:26:06.302Z,17.50
2019-04-16T23:28:36.298Z,17.57
2019-04-16T23:31:06.153Z,17.42
2019-04-16T23:33:36.552Z,18.17
2019-04-16T23:36:06.479Z,18.35
2019-04-16T23:38:36.501Z,21.65
2019-04-16T23:41:07.163Z,19.98
2019-04-16T23:43:50.572Z,21.37
2019-04-16T23:46:48.597Z,24.57
2019-04-16T23:49:44.256Z,18.73
2019-04-16T23:52:28.683Z,21.42
2019-04-16T23:55:17.460Z,24.63
2019-04-16T23:58:15.046Z,21.10
